Aeroporto :
LOGIN :

Iscrizione | Disclaimer

   EN    FR    IT 

 










Sommario :    VFR   VFR Marginale   IFR   IFR Intensivo   IFR Molto Intensivo
Visibilità : 
Base nubi : 
>= 8 km
>= 3000ft
5 / 8 km
1000 / 3000 ft
1500m / 5 km
500 / 1000 ft
800 / 1500m
200 / 500 ft
< 800m
< 200 ft
Simboli :   Temporali  Nebbia  Neve Forte  Precipitazioni Forti  Vento > 20 kt
SIGMETs :   Varie  Temporali  Ghiacco  Turbolenza  Onda orograficha  Ceneri Vulcaniche







- Altitudine del aeroporto : 90 ft
- Codice IATA : NTE
- Carte del aeroporto


LFRS - Nantes

ULTIMO METAR :
  • 180430Z AUTO 06004KT 030V090 CAVOK 19/13 Q1011 TEMPO SHRA SCT050CB

METARs OBSOLETI :
  • 180400Z AUTO 07003KT 020V100 CAVOK 19/14 Q1011 TEMPO SHRA SCT050CB
  • 180330Z AUTO VRB03KT CAVOK 19/13 Q1012 TEMPO SHRA SCT050CB
  • 180300Z AUTO 05004KT 010V080 CAVOK 20/13 Q1012 TEMPO SHRA SCT050CB
  • 180230Z AUTO 04004KT 020V080 CAVOK 20/13 Q1012 TEMPO SHRA SCT050CB
  • 180200Z AUTO VRB03KT CAVOK 19/13 Q1012 TEMPO SHRA SCT050CB
  • 180130Z AUTO VRB02KT CAVOK 20/14 Q1012 TEMPO SHRA SCT050CB

TAF TAF LFRS
Valido dal 18 a 00 ore il 19 a 06 ore UTC


172300Z 1800/1906 04004KT CAVOK
TEMPO 1803/1808 SHRA SCT050CB
BECMG 1813/1816 24010KT SHRA SCT080CB
PROB30
TEMPO 1816/1820 24015G30KT TSRA BKN050CB
BECMG 1821/1824 -SHRA BKN011 SCT030TCU
ATIS : +33 2 40 05 12 74
Nessun NOTAM noto per questo aeroporto.
2 SIGMETs conosciuti per la FIR Brest (LFRR) :
 
Cancellazione del SIGMET 1 
LFRR SIGMET 2 VALID 180425/180600 LFPW
LFRR BREST FIR/UIR CNL SIGMET 1 180400/180600=
SIGMET 1  ANNULATO :
Temporali affogati
LFRR SIGMET 1 VALID 180400/180600 LFPW
LFRR BREST FIR/UIR EMBD TS OBS AT 0400Z WI N4900 W00200 - N4830 W00230 - N4830 W00315 - N4915 W00245 - N4900 W00200 TOP FL360 MOV NE 15KT NC=



MetMap, La meteo Aeronautica in un colpo d'occhio ! - Copyright ORBIFLY Dicembre 2007 - Disclaimer

ORBIFLY MET'MAP TEAM :

Programmazione e sviluppo : Alexandra Zaïnal
Concezione e sviluppo : Baudouin d'Aumeries
Co-Programmazione e sviluppo : Marc-Olivier Méhu
Supporto tecnico e logistico : Manuel Goepfert
Aiuto per la traduzione : Arnaldo La Scala

Contatto : metmap@orbifly.com




FONTI E CREDITI :

   NOAA